createdAt,value
2022-11-01T00:01:59.288Z,8.97
2022-11-01T00:05:00.977Z,9.17
2022-11-01T00:08:02.677Z,8.93
2022-11-01T00:11:09.975Z,9.47
2022-11-01T00:14:16.473Z,8.63
2022-11-01T00:17:17.887Z,10.17
2022-11-01T00:20:19.279Z,8.20
2022-11-01T00:23:21.174Z,8.50
2022-11-01T00:26:24.277Z,8.20
2022-11-01T00:29:25.758Z,8.67
2022-11-01T00:32:27.144Z,7.70
2022-11-01T00:35:28.759Z,8.27
2022-11-01T00:38:30.146Z,8.50
2022-11-01T00:41:31.583Z,8.33
2022-11-01T00:44:32.980Z,8.07
2022-11-01T00:47:34.365Z,8.20
2022-11-01T00:50:35.784Z,8.47
2022-11-01T00:53:37.323Z,8.20
2022-11-01T00:56:39.344Z,8.20
2022-11-01T00:59:41.169Z,8.40
2022-11-01T01:02:42.748Z,8.20
2022-11-01T01:05:44.140Z,8.03
2022-11-01T01:08:45.620Z,8.17
2022-11-01T01:11:47.068Z,7.77
2022-11-01T01:14:48.554Z,8.43
2022-11-01T01:17:49.938Z,8.50
2022-11-01T01:20:51.320Z,8.60
2022-11-01T01:23:54.653Z,8.80
2022-11-01T01:26:56.090Z,8.90
2022-11-01T01:29:57.463Z,8.87
2022-11-01T01:32:58.894Z,9.33
2022-11-01T01:36:04.962Z,8.33
2022-11-01T01:39:06.339Z,9.10
2022-11-01T01:42:21.264Z,9.20
2022-11-01T01:45:36.478Z,8.40
2022-11-01T01:48:40.327Z,8.07
2022-11-01T01:51:41.730Z,8.97
2022-11-01T01:54:43.307Z,8.47
2022-11-01T01:57:45.190Z,8.30
2022-11-01T02:00:46.634Z,7.90
2022-11-01T02:03:48.797Z,8.27
2022-11-01T02:06:50.191Z,8.90
2022-11-01T02:09:52.810Z,9.13
2022-11-01T02:12:54.307Z,7.97
2022-11-01T02:16:04.714Z,8.87
2022-11-01T02:19:51.137Z,7.93
2022-11-01T02:23:18.333Z,8.60
2022-11-01T02:26:39.521Z,8.27
2022-11-01T02:30:04.961Z,7.97
2022-11-01T02:33:46.012Z,9.13
2022-11-01T02:36:52.867Z,7.83
2022-11-01T02:40:02.054Z,8.10
2022-11-01T02:43:09.547Z,8.40
2022-11-01T02:46:29.726Z,8.90
2022-11-01T02:49:41.430Z,8.30
2022-11-01T02:52:43.272Z,8.00
2022-11-01T02:58:52.693Z,8.13
2022-11-01T03:02:04.680Z,8.27
2022-11-01T03:05:06.560Z,8.87
2022-11-01T03:08:11.825Z,8.20
2022-11-01T03:11:20.144Z,7.80
2022-11-01T03:14:35.427Z,8.60
2022-11-01T03:17:47.296Z,8.60
2022-11-01T03:21:15.294Z,8.40
2022-11-01T03:24:27.463Z,7.67
2022-11-01T03:27:32.930Z,8.60
2022-11-01T03:30:35.229Z,8.70
2022-11-01T03:33:41.470Z,8.70
2022-11-01T03:36:49.485Z,8.10
2022-11-01T03:39:53.758Z,8.77
2022-11-01T03:43:01.128Z,8.37
2022-11-01T03:46:02.771Z,7.23
2022-11-01T03:49:04.309Z,8.93
2022-11-01T03:52:05.728Z,7.97
2022-11-01T03:55:18.086Z,8.00
2022-11-01T03:58:19.786Z,7.83
2022-11-01T04:01:21.321Z,9.03
2022-11-01T04:04:22.830Z,8.67
2022-11-01T04:07:24.229Z,8.40
2022-11-01T04:10:26.932Z,7.00
2022-11-01T04:13:28.330Z,7.87
2022-11-01T04:16:48.398Z,8.47
2022-11-01T04:20:08.212Z,8.03
2022-11-01T04:23:09.683Z,9.07
2022-11-01T04:26:20.435Z,8.17
2022-11-01T04:29:21.837Z,8.23
2022-11-01T04:32:23.227Z,8.73
2022-11-01T04:35:24.620Z,8.13
2022-11-01T04:38:26.021Z,9.03
2022-11-01T04:41:29.126Z,8.80
2022-11-01T04:44:30.523Z,8.80
2022-11-01T04:47:32.140Z,8.57
2022-11-01T04:50:35.218Z,8.50
2022-11-01T04:53:36.883Z,8.60
2022-11-01T04:56:38.250Z,8.80
2022-11-01T04:59:39.692Z,9.10
2022-11-01T05:02:41.192Z,8.60
2022-11-01T05:05:42.589Z,7.60
2022-11-01T05:08:44.145Z,7.93
2022-11-01T05:11:45.525Z,7.43
2022-11-01T05:14:46.907Z,7.27
2022-11-01T05:17:48.427Z,7.17
2022-11-01T05:20:49.798Z,7.00
2022-11-01T05:23:51.187Z,7.10
2022-11-01T05:26:52.604Z,7.20
2022-11-01T05:29:53.992Z,8.00
2022-11-01T05:32:59.957Z,6.67
2022-11-01T05:36:01.848Z,6.53
2022-11-01T05:39:03.326Z,6.80
2022-11-01T05:42:04.736Z,6.67
2022-11-01T05:45:06.770Z,7.37
2022-11-01T05:48:08.352Z,6.37
2022-11-01T05:51:10.763Z,6.97
2022-11-01T05:54:12.143Z,7.00
2022-11-01T05:57:13.649Z,7.40
2022-11-01T06:00:15.131Z,7.07
2022-11-01T06:03:16.619Z,6.73
2022-11-01T06:06:18.062Z,6.70
2022-11-01T06:09:19.525Z,6.57
2022-11-01T06:12:24.384Z,7.30
2022-11-01T06:15:25.779Z,7.30
2022-11-01T06:18:27.375Z,6.67
2022-11-01T06:21:30.196Z,6.80
2022-11-01T06:24:31.931Z,7.20
2022-11-01T06:27:33.328Z,6.37
2022-11-01T06:30:34.778Z,7.27
2022-11-01T06:33:36.206Z,7.67
2022-11-01T06:36:37.901Z,6.50
2022-11-01T06:39:39.325Z,6.53
2022-11-01T06:42:45.501Z,7.10
2022-11-01T06:45:48.300Z,6.93
2022-11-01T06:48:49.699Z,7.43
2022-11-01T06:51:51.158Z,7.53
2022-11-01T06:54:52.548Z,7.13
2022-11-01T06:57:55.771Z,6.53
2022-11-01T07:00:57.309Z,6.67
2022-11-01T07:03:58.792Z,7.37
2022-11-01T07:07:00.502Z,6.80
2022-11-01T07:10:01.887Z,6.70
2022-11-01T07:13:06.068Z,6.50
2022-11-01T07:16:07.600Z,5.77
2022-11-01T07:19:09.062Z,6.20
2022-11-01T07:22:10.437Z,5.47
2022-11-01T07:25:11.823Z,5.47
2022-11-01T07:28:13.274Z,5.60
2022-11-01T07:31:14.795Z,5.30
2022-11-01T07:34:16.166Z,5.90
2022-11-01T07:37:18.435Z,5.37
2022-11-01T07:40:27.266Z,5.43
2022-11-01T07:43:28.789Z,5.07
2022-11-01T07:46:31.541Z,5.57
2022-11-01T07:49:32.947Z,5.80
2022-11-01T07:52:34.334Z,5.47
2022-11-01T07:55:36.379Z,5.20
2022-11-01T07:58:43.384Z,5.00
2022-11-01T08:01:44.875Z,5.63
2022-11-01T08:04:46.469Z,7.13
2022-11-01T08:07:47.920Z,7.87
2022-11-01T08:10:49.407Z,7.33
2022-11-01T08:13:50.815Z,6.70
2022-11-01T08:17:00.508Z,6.90
2022-11-01T08:20:02.224Z,6.30
2022-11-01T08:23:04.432Z,6.33
2022-11-01T08:26:06.612Z,6.07
2022-11-01T08:29:08.000Z,5.57
2022-11-01T08:32:09.655Z,4.63
2022-11-01T08:35:12.265Z,4.53
2022-11-01T08:38:13.704Z,3.97
2022-11-01T08:41:15.123Z,4.10
2022-11-01T08:44:20.216Z,3.80
2022-11-01T08:47:22.110Z,3.37
2022-11-01T08:50:23.706Z,2.20
2022-11-01T08:53:25.195Z,2.10
2022-11-01T08:56:27.516Z,2.00
2022-11-01T08:59:29.469Z,1.90
2022-11-01T09:02:30.928Z,1.87
2022-11-01T09:05:32.535Z,2.20
2022-11-01T09:08:34.005Z,1.60
2022-11-01T09:11:36.788Z,1.70
2022-11-01T09:14:38.302Z,1.80
2022-11-01T09:17:39.700Z,1.93
2022-11-01T09:20:41.154Z,1.63
2022-11-01T09:23:42.812Z,1.50
2022-11-01T09:26:44.431Z,1.87
2022-11-01T09:29:48.108Z,1.60
2022-11-01T09:32:52.590Z,1.63
2022-11-01T09:35:59.189Z,1.80
2022-11-01T09:39:01.033Z,1.80
2022-11-01T09:42:06.843Z,1.90
2022-11-01T09:45:15.451Z,1.93
2022-11-01T09:48:17.788Z,2.07
2022-11-01T09:51:22.529Z,1.60
2022-11-01T09:54:25.576Z,1.77
2022-11-01T09:57:35.302Z,1.93
2022-11-01T10:00:44.649Z,1.60
2022-11-01T10:04:20.142Z,2.03
2022-11-01T10:07:39.963Z,2.10
2022-11-01T10:11:02.718Z,1.90
2022-11-01T10:14:38.401Z,1.60
2022-11-01T10:17:53.782Z,1.60
2022-11-01T10:21:05.403Z,1.60
2022-11-01T10:24:15.098Z,1.57
2022-11-01T10:27:33.165Z,1.57
2022-11-01T10:30:43.064Z,1.40
2022-11-01T10:34:00.553Z,1.33
2022-11-01T10:37:19.563Z,1.30
2022-11-01T10:40:32.259Z,1.50
2022-11-01T10:43:37.972Z,1.30
2022-11-01T10:46:43.858Z,1.60
2022-11-01T10:50:05.463Z,1.60
2022-11-01T10:53:13.221Z,1.50
2022-11-01T10:56:23.874Z,1.83
2022-11-01T10:59:35.859Z,1.70
2022-11-01T11:02:42.832Z,1.70
2022-11-01T11:05:45.044Z,1.43
2022-11-01T11:08:51.521Z,1.23
2022-11-01T11:11:57.438Z,1.37
2022-11-01T11:15:04.209Z,1.50
2022-11-01T11:18:30.935Z,1.60
2022-11-01T11:21:36.848Z,1.57
2022-11-01T11:24:42.236Z,1.73
2022-11-01T11:27:47.596Z,1.37
2022-11-01T11:30:49.355Z,1.30
2022-11-01T11:33:55.985Z,1.77
2022-11-01T11:36:58.601Z,1.23
2022-11-01T11:40:26.745Z,1.30
2022-11-01T11:43:30.226Z,1.30
2022-11-01T11:46:31.704Z,1.23
2022-11-01T11:49:33.199Z,1.10
2022-11-01T11:52:38.594Z,1.40
2022-11-01T11:55:43.607Z,1.10
2022-11-01T11:58:52.116Z,1.60
2022-11-01T12:02:02.315Z,3.50
2022-11-01T12:05:08.441Z,1.67
2022-11-01T12:08:26.239Z,1.50
2022-11-01T12:11:39.876Z,1.07
2022-11-01T12:14:41.957Z,1.63
2022-11-01T12:17:45.276Z,1.13
2022-11-01T12:20:51.946Z,1.37
2022-11-01T12:23:58.703Z,1.20
2022-11-01T12:27:03.996Z,1.57
2022-11-01T12:30:19.259Z,1.10
2022-11-01T12:33:29.559Z,1.20
2022-11-01T12:36:43.646Z,1.30
2022-11-01T12:40:13.755Z,1.40
2022-11-01T12:43:20.812Z,1.57
2022-11-01T12:46:35.605Z,1.20
2022-11-01T12:49:40.045Z,1.10
2022-11-01T12:52:46.382Z,1.17
2022-11-01T12:55:47.919Z,1.37
2022-11-01T12:58:52.719Z,1.00
2022-11-01T13:02:19.622Z,1.30
2022-11-01T13:05:34.500Z,1.20
2022-11-01T13:09:01.541Z,1.27
2022-11-01T13:12:22.711Z,1.60
2022-11-01T13:16:07.493Z,1.40
2022-11-01T13:19:16.241Z,1.40
2022-11-01T13:22:30.844Z,1.10
2022-11-01T13:25:41.708Z,1.53
2022-11-01T13:32:30.043Z,1.10
2022-11-01T13:35:40.380Z,1.20
2022-11-01T13:38:52.079Z,1.30
2022-11-01T13:42:07.512Z,1.20
2022-11-01T13:45:21.633Z,1.10
2022-11-01T13:48:25.928Z,1.10
2022-11-01T13:51:38.279Z,1.03
2022-11-01T13:55:03.445Z,1.23
2022-11-01T13:58:06.131Z,1.13
2022-11-01T14:01:35.872Z,1.30
2022-11-01T14:04:37.951Z,1.50
2022-11-01T14:07:45.380Z,1.20
2022-11-01T14:10:49.484Z,1.20
2022-11-01T14:13:50.961Z,1.50
2022-11-01T14:16:52.392Z,1.20
2022-11-01T14:19:56.756Z,0.90
2022-11-01T14:22:58.652Z,1.13
2022-11-01T14:26:46.368Z,1.40
2022-11-01T14:29:51.699Z,1.10
2022-11-01T14:32:57.140Z,1.27
2022-11-01T14:35:59.299Z,1.03
2022-11-01T14:39:17.578Z,1.53
2022-11-01T14:42:26.408Z,1.53
2022-11-01T14:45:33.228Z,1.23
2022-11-01T14:48:46.589Z,1.50
2022-11-01T14:52:03.214Z,1.40
2022-11-01T14:55:21.137Z,2.13
2022-11-01T14:58:23.527Z,1.20
2022-11-01T15:01:25.372Z,1.30
2022-11-01T15:04:29.731Z,1.37
2022-11-01T15:07:38.359Z,1.73
2022-11-01T15:10:42.249Z,1.20
2022-11-01T15:13:45.435Z,1.47
2022-11-01T15:16:46.848Z,1.50
2022-11-01T15:19:53.002Z,1.23
2022-11-01T15:22:57.197Z,1.23
2022-11-01T15:26:04.388Z,1.20
2022-11-01T15:29:06.615Z,1.27
2022-11-01T15:32:22.742Z,1.23
2022-11-01T15:35:26.105Z,1.13
2022-11-01T15:38:28.690Z,1.27
2022-11-01T15:41:34.849Z,1.50
2022-11-01T15:44:36.371Z,1.33
2022-11-01T15:47:43.401Z,1.20
2022-11-01T15:50:51.829Z,1.90
2022-11-01T15:54:14.425Z,1.20
2022-11-01T15:57:45.657Z,1.83
2022-11-01T16:00:52.933Z,1.40
2022-11-01T16:04:03.934Z,1.40
2022-11-01T16:07:08.042Z,1.50
2022-11-01T16:10:27.216Z,1.40
2022-11-01T16:13:31.226Z,1.57
2022-11-01T16:17:10.215Z,1.60
2022-11-01T16:20:46.998Z,1.97
2022-11-01T16:24:15.724Z,1.10
2022-11-01T16:27:27.493Z,1.50
2022-11-01T16:30:45.213Z,2.23
2022-11-01T16:33:47.693Z,2.17
2022-11-01T16:36:49.314Z,2.20
2022-11-01T16:39:51.921Z,1.90
2022-11-01T16:42:58.048Z,1.30
2022-11-01T16:46:00.535Z,1.63
2022-11-01T16:49:16.769Z,1.60
2022-11-01T16:52:19.186Z,1.80
2022-11-01T16:55:22.715Z,1.90
2022-11-01T16:58:27.624Z,1.70
2022-11-01T17:01:35.065Z,1.83
2022-11-01T17:04:39.820Z,1.80
2022-11-01T17:07:41.601Z,2.60
2022-11-01T17:10:43.056Z,3.00
2022-11-01T17:13:44.527Z,3.80
2022-11-01T17:16:47.499Z,3.10
2022-11-01T17:19:59.799Z,5.20
2022-11-01T17:23:01.649Z,4.03
2022-11-01T17:26:05.156Z,5.30
2022-11-01T17:29:06.808Z,7.37
2022-11-01T17:32:09.616Z,9.63
2022-11-01T17:35:11.707Z,9.03
2022-11-01T17:38:30.073Z,8.43
2022-11-01T17:41:32.129Z,6.90
2022-11-01T17:44:33.537Z,6.87
2022-11-01T17:47:34.937Z,8.63
2022-11-01T17:50:36.412Z,8.40
2022-11-01T17:53:39.329Z,7.50
2022-11-01T17:56:40.732Z,7.10
2022-11-01T17:59:42.145Z,7.30
2022-11-01T18:02:44.166Z,6.37
2022-11-01T18:05:45.600Z,6.67
2022-11-01T18:08:49.934Z,6.97
2022-11-01T18:12:07.411Z,6.60
2022-11-01T18:15:29.234Z,7.77
2022-11-01T18:18:41.683Z,9.17
2022-11-01T18:22:09.398Z,7.20
2022-11-01T18:25:32.460Z,7.50
2022-11-01T18:28:34.995Z,7.40
2022-11-01T18:31:43.728Z,7.47
2022-11-01T18:34:59.411Z,7.27
2022-11-01T18:38:23.456Z,6.63
2022-11-01T18:41:26.665Z,6.07
2022-11-01T18:44:28.366Z,5.50
2022-11-01T18:47:34.673Z,5.50
2022-11-01T18:50:38.426Z,5.30
2022-11-01T18:53:39.851Z,5.20
2022-11-01T18:56:47.790Z,4.70
2022-11-01T18:59:52.810Z,4.63
2022-11-01T19:02:58.701Z,5.33
2022-11-01T19:06:21.292Z,6.03
2022-11-01T19:09:25.336Z,7.37
2022-11-01T19:12:31.008Z,7.80
2022-11-01T19:15:36.946Z,8.47
2022-11-01T19:18:42.303Z,9.77
2022-11-01T19:21:44.902Z,9.70
2022-11-01T19:24:46.345Z,10.83
2022-11-01T19:27:53.711Z,11.07
2022-11-01T19:31:00.306Z,10.37
2022-11-01T19:34:23.535Z,11.70
2022-11-01T19:37:34.788Z,11.00
2022-11-01T19:40:39.363Z,11.67
2022-11-01T19:43:40.852Z,11.57
2022-11-01T19:46:42.305Z,10.90
2022-11-01T19:49:43.907Z,11.80
2022-11-01T19:52:47.437Z,11.53
2022-11-01T19:55:54.700Z,11.33
2022-11-01T19:59:00.522Z,10.77
2022-11-01T20:02:06.279Z,11.10
2022-11-01T20:05:33.331Z,10.80
2022-11-01T20:08:34.783Z,10.43
2022-11-01T20:11:36.377Z,11.67
2022-11-01T20:14:38.806Z,11.87
2022-11-01T20:17:40.266Z,11.37
2022-11-01T20:20:43.779Z,10.97
2022-11-01T20:23:45.173Z,10.50
2022-11-01T20:26:46.592Z,10.10
2022-11-01T20:29:48.023Z,10.40
2022-11-01T20:32:49.455Z,10.53
2022-11-01T20:35:52.480Z,9.90
2022-11-01T20:38:54.024Z,10.50
2022-11-01T20:41:55.422Z,10.53
2022-11-01T20:44:56.868Z,10.80
2022-11-01T20:47:58.250Z,9.93
2022-11-01T20:50:59.904Z,9.10
2022-11-01T20:54:01.362Z,10.70
2022-11-01T20:57:02.753Z,9.13
2022-11-01T21:00:13.579Z,7.57
2022-11-01T21:03:20.583Z,8.57
2022-11-01T21:06:25.150Z,7.87
2022-11-01T21:09:36.590Z,7.83
2022-11-01T21:12:44.747Z,7.80
2022-11-01T21:15:46.198Z,6.90
2022-11-01T21:18:48.659Z,7.70
2022-11-01T21:21:57.022Z,8.37
2022-11-01T21:24:59.718Z,7.37
2022-11-01T21:28:02.362Z,7.37
2022-11-01T21:31:09.897Z,7.40
2022-11-01T21:34:11.224Z,7.37
2022-11-01T21:37:12.633Z,7.60
2022-11-01T21:40:26.311Z,7.50
2022-11-01T21:43:33.109Z,7.43
2022-11-01T21:46:35.746Z,6.60
2022-11-01T21:49:37.756Z,7.47
2022-11-01T21:52:39.501Z,7.37
2022-11-01T21:55:40.895Z,6.97
2022-11-01T21:58:42.300Z,7.30
2022-11-01T22:01:45.984Z,8.40
2022-11-01T22:04:47.527Z,7.23
2022-11-01T22:07:48.987Z,8.17
2022-11-01T22:10:50.395Z,8.67
2022-11-01T22:13:54.778Z,8.90
2022-11-01T22:16:56.740Z,8.70
2022-11-01T22:19:58.369Z,8.50
2022-11-01T22:22:59.835Z,8.73
2022-11-01T22:26:01.256Z,8.47
2022-11-01T22:29:02.661Z,8.10
2022-11-01T22:32:04.456Z,7.70
2022-11-01T22:35:06.116Z,7.97
2022-11-01T22:38:18.360Z,8.17
2022-11-01T22:41:30.067Z,8.20
2022-11-01T22:44:37.552Z,9.50
2022-11-01T22:47:39.320Z,8.67
2022-11-01T22:50:40.720Z,8.77
2022-11-01T22:53:42.178Z,9.57
2022-11-01T22:56:44.505Z,11.47
2022-11-01T22:59:51.282Z,10.20
2022-11-01T23:02:59.636Z,10.20
2022-11-01T23:06:13.337Z,9.83
2022-11-01T23:09:18.543Z,10.17
2022-11-01T23:12:41.990Z,10.10
2022-11-01T23:15:43.877Z,9.73
2022-11-01T23:18:45.266Z,9.60
2022-11-01T23:21:48.102Z,9.67
2022-11-01T23:24:51.718Z,8.73
2022-11-01T23:27:54.090Z,8.47
2022-11-01T23:30:56.435Z,8.30
2022-11-01T23:33:57.890Z,7.50
2022-11-01T23:36:59.538Z,7.67
2022-11-01T23:40:01.028Z,7.50
2022-11-01T23:43:02.803Z,6.77
2022-11-01T23:46:06.278Z,6.80
2022-11-01T23:49:17.728Z,7.00
2022-11-01T23:52:32.833Z,6.57
2022-11-01T23:55:40.842Z,6.63
2022-11-01T23:58:42.627Z,6.33
